createdAt,value
2022-08-30T00:01:02.226Z,102236.63
2022-08-30T00:06:26.864Z,102217.81
2022-08-30T00:11:52.145Z,102230.69
2022-08-30T00:17:16.751Z,102228.75
2022-08-30T00:22:40.096Z,102231.34
2022-08-30T00:28:03.763Z,102213.16
2022-08-30T00:33:28.423Z,102193.16
2022-08-30T00:38:51.627Z,102225.41
2022-08-30T00:44:14.790Z,102222.13
2022-08-30T00:49:41.602Z,102228.41
2022-08-30T00:55:05.867Z,102225.06
2022-08-30T01:00:29.142Z,102225.28
2022-08-30T01:05:54.272Z,102204.63
2022-08-30T01:11:20.198Z,102220.28
2022-08-30T01:16:44.956Z,102230.25
2022-08-30T01:22:19.832Z,102226.81
2022-08-30T01:27:47.419Z,102240.97
2022-08-30T01:33:12.569Z,102236.94
2022-08-30T01:38:36.692Z,102229.09
2022-08-30T01:44:02.902Z,102229.44
2022-08-30T01:49:27.666Z,102233.38
2022-08-30T01:54:51.214Z,102244.03
2022-08-30T02:00:18.007Z,102234.59
2022-08-30T02:05:41.301Z,102223.72
2022-08-30T02:11:06.646Z,102241.19
2022-08-30T02:16:31.601Z,102238.53
2022-08-30T02:21:54.861Z,102240.38
2022-08-30T02:27:18.372Z,102236.91
2022-08-30T02:32:43.140Z,102242.38
2022-08-30T02:38:06.513Z,102227.44
2022-08-30T02:43:29.836Z,102233.66
2022-08-30T02:48:54.561Z,102234.81
2022-08-30T02:54:20.148Z,102223.50
2022-08-30T02:59:45.368Z,102213.84
2022-08-30T03:05:13.052Z,102214.97
2022-08-30T03:10:38.400Z,102213.22
2022-08-30T03:16:01.694Z,102204.44
2022-08-30T03:21:26.295Z,102216.94
2022-08-30T03:26:49.577Z,102216.31
2022-08-30T03:32:12.799Z,102214.81
2022-08-30T03:37:37.657Z,102196.53
2022-08-30T03:43:01.050Z,102209.44
2022-08-30T03:48:26.142Z,102207.75
2022-08-30T03:53:50.848Z,102211.31
2022-08-30T03:59:14.051Z,102212.34
2022-08-30T04:04:37.283Z,102224.72
2022-08-30T04:10:01.909Z,102217.72
2022-08-30T04:15:25.222Z,102222.16
2022-08-30T04:20:48.538Z,102211.78
2022-08-30T04:26:13.183Z,102214.16
2022-08-30T04:31:36.425Z,102212.63
2022-08-30T04:36:59.679Z,102222.19
2022-08-30T04:42:24.836Z,102223.59
2022-08-30T04:47:48.515Z,102240.19
2022-08-30T04:53:11.756Z,102224.22
2022-08-30T04:58:36.417Z,102226.63
2022-08-30T05:04:00.300Z,102240.63
2022-08-30T05:09:23.990Z,102232.72
2022-08-30T05:14:48.685Z,102197.88
2022-08-30T05:20:13.012Z,102250.06
2022-08-30T05:25:39.859Z,102250.78
2022-08-30T05:31:04.836Z,102232.59
2022-08-30T05:36:38.583Z,102256.84
2022-08-30T05:42:01.861Z,102255.84
2022-08-30T05:47:26.517Z,102263.53
2022-08-30T05:52:49.725Z,102261.78
2022-08-30T05:58:12.901Z,102265.25
2022-08-30T06:03:37.508Z,102278.91
2022-08-30T06:09:00.932Z,102275.97
2022-08-30T06:14:26.021Z,102277.47
2022-08-30T06:19:50.655Z,102209.22
2022-08-30T06:25:16.272Z,102276.25
2022-08-30T06:30:41.232Z,102270.97
2022-08-30T06:36:06.948Z,102267.56
2022-08-30T06:41:32.663Z,102275.94
2022-08-30T06:46:56.060Z,102272.28
2022-08-30T06:52:20.738Z,102285.19
2022-08-30T06:57:44.815Z,102284.72
2022-08-30T07:03:08.634Z,102278.16
2022-08-30T07:08:33.322Z,102276.44
2022-08-30T07:13:56.889Z,102278.72
2022-08-30T07:19:20.897Z,102274.16
2022-08-30T07:24:46.332Z,102246.19
2022-08-30T07:30:10.636Z,102266.69
2022-08-30T07:35:33.838Z,102269.84
2022-08-30T07:40:59.184Z,102247.31
2022-08-30T07:46:23.354Z,102271.56
2022-08-30T07:51:48.184Z,102277.63
2022-08-30T07:57:12.890Z,102282.34
2022-08-30T08:02:40.817Z,102281.28
2022-08-30T08:08:04.384Z,102276.47
2022-08-30T08:13:32.768Z,102290.34
2022-08-30T08:19:00.078Z,102284.66
2022-08-30T08:24:23.320Z,102283.16
2022-08-30T08:29:47.907Z,102278.44
2022-08-30T08:35:11.539Z,102283.28
2022-08-30T08:40:38.989Z,102282.09
2022-08-30T08:46:09.153Z,102292.22
2022-08-30T08:51:53.375Z,102287.44
2022-08-30T08:57:18.546Z,102297.22
2022-08-30T09:02:46.606Z,102296.59
2022-08-30T09:08:14.935Z,102305.75
2022-08-30T09:13:38.157Z,102308.53
2022-08-30T09:19:02.739Z,102305.19
2022-08-30T09:24:26.029Z,102297.06
2022-08-30T09:35:20.598Z,102311.44
2022-08-30T09:40:46.664Z,102295.59
2022-08-30T09:46:16.254Z,102304.53
2022-08-30T09:51:47.446Z,102298.56
2022-08-30T09:57:17.253Z,102303.44
2022-08-30T10:03:08.560Z,102292.69
2022-08-30T10:08:42.110Z,102296.50
2022-08-30T10:14:29.711Z,102291.97
2022-08-30T10:20:01.813Z,102288.69
2022-08-30T10:25:30.151Z,102297.53
2022-08-30T10:30:58.127Z,102307.59
2022-08-30T10:36:25.144Z,102295.81
2022-08-30T10:41:51.819Z,102291.06
2022-08-30T10:47:23.840Z,102286.38
2022-08-30T10:52:53.041Z,102289.75
2022-08-30T10:58:18.642Z,102297.69
2022-08-30T11:04:14.605Z,102289.53
2022-08-30T11:10:04.937Z,102293.59
2022-08-30T11:15:31.788Z,102297.34
2022-08-30T11:20:57.315Z,102279.09
2022-08-30T11:26:54.741Z,102275.66
2022-08-30T11:32:59.977Z,102273.53
2022-08-30T11:38:56.452Z,102270.00
2022-08-30T11:44:33.178Z,102274.31
2022-08-30T11:50:10.926Z,102281.97
2022-08-30T11:55:46.699Z,102277.66
2022-08-30T12:01:41.835Z,102262.13
2022-08-30T12:07:06.475Z,102267.50
2022-08-30T12:12:57.087Z,102264.88
2022-08-30T12:18:29.859Z,102276.63
2022-08-30T12:23:56.807Z,102270.69
2022-08-30T12:29:22.723Z,102268.66
2022-08-30T12:34:54.849Z,102268.66
2022-08-30T12:40:20.603Z,102263.44
2022-08-30T12:45:45.941Z,102266.69
2022-08-30T12:51:30.881Z,102251.63
2022-08-30T12:57:03.688Z,102259.56
2022-08-30T13:02:48.182Z,102255.22
2022-08-30T13:08:18.251Z,102262.97
2022-08-30T13:13:44.587Z,102240.09
2022-08-30T13:19:25.823Z,102242.84
2022-08-30T13:24:51.536Z,102233.56
2022-08-30T13:30:17.068Z,102228.59
2022-08-30T13:35:40.312Z,102226.84
2022-08-30T13:41:05.406Z,102213.44
2022-08-30T13:46:28.662Z,102206.22
2022-08-30T13:52:18.468Z,102215.72
2022-08-30T13:57:54.742Z,102203.81
2022-08-30T14:03:18.497Z,102212.25
2022-08-30T14:08:47.779Z,102210.19
2022-08-30T14:14:22.247Z,102202.38
2022-08-30T14:19:53.595Z,102209.00
2022-08-30T14:25:17.349Z,102187.28
2022-08-30T14:30:44.058Z,102208.31
2022-08-30T14:36:12.466Z,102197.84
2022-08-30T14:41:44.182Z,102201.53
2022-08-30T14:47:09.888Z,102195.50
2022-08-30T14:52:33.960Z,102168.81
2022-08-30T14:57:57.611Z,102195.75
2022-08-30T15:03:22.239Z,102187.19
2022-08-30T15:08:47.655Z,102142.81
2022-08-30T15:14:15.900Z,102181.13
2022-08-30T15:19:41.848Z,102185.41
2022-08-30T15:25:06.493Z,102183.97
2022-08-30T15:30:29.856Z,102179.19
2022-08-30T15:35:55.303Z,102184.66
2022-08-30T15:41:18.507Z,102167.13
2022-08-30T15:46:43.746Z,102165.00
2022-08-30T15:52:08.533Z,102157.84
2022-08-30T15:57:32.448Z,102154.56
2022-08-30T16:02:55.991Z,102148.88
2022-08-30T16:08:21.261Z,102146.66
2022-08-30T16:13:49.559Z,102141.53
2022-08-30T16:19:13.889Z,102132.25
2022-08-30T16:24:39.142Z,102137.41
2022-08-30T16:30:02.577Z,102138.53
2022-08-30T16:35:26.543Z,102123.44
2022-08-30T16:40:53.131Z,102129.78
2022-08-30T16:46:22.600Z,102116.19
2022-08-30T16:51:46.605Z,102124.56
2022-08-30T16:57:11.375Z,102126.03
2022-08-30T17:02:34.860Z,102116.41
2022-08-30T17:07:58.488Z,102134.50
2022-08-30T17:13:23.278Z,102127.94
2022-08-30T17:18:46.499Z,102137.44
2022-08-30T17:24:09.795Z,102132.41
2022-08-30T17:29:34.442Z,102136.63
2022-08-30T17:34:57.672Z,102140.22
2022-08-30T17:40:21.561Z,102135.19
2022-08-30T17:45:46.324Z,102138.09
2022-08-30T17:51:09.469Z,102135.53
2022-08-30T17:56:34.070Z,102152.97
2022-08-30T18:02:00.282Z,102159.19
2022-08-30T18:07:23.508Z,102161.97
2022-08-30T18:12:47.165Z,102166.66
2022-08-30T18:18:11.748Z,102184.66
2022-08-30T18:23:36.111Z,102189.19
2022-08-30T18:28:59.914Z,102185.75
2022-08-30T18:34:25.045Z,102191.91
2022-08-30T18:39:48.470Z,102199.81
2022-08-30T18:45:15.105Z,102205.19
2022-08-30T18:50:41.354Z,102212.09
2022-08-30T18:56:05.153Z,102218.19
2022-08-30T19:01:28.676Z,102235.72
2022-08-30T19:06:53.563Z,102236.97
2022-08-30T19:12:18.267Z,102226.72
2022-08-30T19:17:44.930Z,102215.38
2022-08-30T19:23:10.405Z,102174.16
2022-08-30T19:28:36.250Z,102240.91
2022-08-30T19:33:59.589Z,102245.75
2022-08-30T19:39:24.731Z,102241.09
2022-08-30T19:44:51.131Z,102241.66
2022-08-30T19:50:15.642Z,102246.63
2022-08-30T19:55:40.358Z,102248.19
2022-08-30T20:01:11.803Z,102234.94
2022-08-30T20:06:47.739Z,102257.03
2022-08-30T20:12:12.376Z,102259.75
2022-08-30T20:18:02.005Z,102246.47
2022-08-30T20:23:21.698Z,102256.75
2022-08-30T20:28:47.948Z,102256.50
2022-08-30T20:34:11.222Z,102267.69
2022-08-30T20:39:34.551Z,102261.84
2022-08-30T20:45:00.198Z,102264.56
2022-08-30T20:50:23.583Z,102268.91
2022-08-30T20:55:48.582Z,102272.75
2022-08-30T21:01:15.840Z,102275.06
2022-08-30T21:06:39.212Z,102240.28
2022-08-30T21:12:02.368Z,102279.97
2022-08-30T21:17:27.439Z,102269.94
2022-08-30T21:22:50.616Z,102264.72
2022-08-30T21:28:13.972Z,102282.78
2022-08-30T21:33:42.489Z,102288.75
2022-08-30T21:39:07.233Z,102292.25
2022-08-30T21:44:30.383Z,102276.81
2022-08-30T21:49:54.976Z,102300.75
2022-08-30T21:55:18.401Z,102301.72
2022-08-30T22:00:41.659Z,102283.47
2022-08-30T22:06:06.999Z,102295.16
2022-08-30T22:11:31.586Z,102309.56
2022-08-30T22:16:54.898Z,102312.44
2022-08-30T22:22:19.659Z,102319.03
2022-08-30T22:27:42.863Z,102309.22
2022-08-30T22:33:06.050Z,102305.63
2022-08-30T22:38:30.631Z,102303.28
2022-08-30T22:43:53.971Z,102314.66
2022-08-30T22:49:17.146Z,102318.47
2022-08-30T22:54:41.683Z,102302.69
2022-08-30T23:00:07.635Z,102317.63
2022-08-30T23:05:31.075Z,102318.13
2022-08-30T23:10:57.894Z,102306.28
2022-08-30T23:16:21.535Z,102304.25
2022-08-30T23:21:45.344Z,102319.47
2022-08-30T23:27:27.676Z,102309.91
2022-08-30T23:33:08.318Z,102308.63
2022-08-30T23:38:48.940Z,102315.38
2022-08-30T23:44:31.057Z,102318.34
2022-08-30T23:50:11.728Z,102316.47
2022-08-30T23:55:56.646Z,102322.72
